Time;durP1;ratioP1;P1;durP2;ratioP2;P2;SDS_P1;SDS_P2;PMS_P1;PMS_P2;Temp;Humidity;BMP_temperature;BMP_pressure;BME280_temperature;BME280_humidity;BME280_pressure;Samples;Min_cycle;Max_cycle;Signal;HPM_P1;HPM_P2
2021/04/16 00:00:05;;;;;;;7.149999;4.1;;;;;;;-0.25;73.69824;95764.75;;;;
2021/04/16 00:01:25;;;;;;;7.149999;4.1;;;;;;;-0.25;73.69824;95764.75;;;;
2021/04/16 00:02:25;;;;;;;4.8;4.25;;;;;;;-0.51;73.94629;95752.44;;;;
2021/04/16 00:03:26;;;;;;;4.8;4.25;;;;;;;-0.51;73.94629;95752.44;;;;
2021/04/16 00:04:27;;;;;;;4.8;4.25;;;;;;;-0.51;73.94629;95752.44;;;;
2021/04/16 00:05:28;;;;;;;4.8;4.25;;;;;;;-0.51;73.94629;95752.44;;;;
2021/04/16 00:06:28;;;;;;;4.8;4.25;;;;;;;-0.51;73.94629;95752.44;;;;
2021/04/16 00:07:29;;;;;;;4.8;4.25;;;;;;;-0.51;73.94629;95752.44;;;;
2021/04/16 00:08:30;;;;;;;4.8;4.25;;;;;;;-0.51;73.94629;95752.44;;;;
2021/04/16 00:09:33;;;;;;;4.8;4.25;;;;;;;-0.51;73.94629;95752.44;;;;
2021/04/16 00:10:33;;;;;;;4.8;4.25;;;;;;;-0.51;73.94629;95752.44;;;;
2021/04/16 00:11:37;;;;;;;4.8;4.25;;;;;;;-0.51;73.94629;95752.44;;;;
2021/04/16 00:12:38;;;;;;;4.8;4.25;;;;;;;-0.51;73.94629;95752.44;;;;
2021/04/16 00:13:38;;;;;;;5.25;4.299999;;;;;;;-0.75;74.38281;95752.76;;;;
2021/04/16 00:14:39;;;;;;;5.25;4.299999;;;;;;;-0.75;74.38281;95752.76;;;;
2021/04/16 00:15:40;;;;;;;5.25;4.299999;;;;;;;-0.75;74.38281;95752.76;;;;
2021/04/16 00:16:42;;;;;;;5.25;4.299999;;;;;;;-0.75;74.38281;95752.76;;;;
2021/04/16 00:17:43;;;;;;;5.25;4.299999;;;;;;;-0.75;74.38281;95752.76;;;;
2021/04/16 00:18:44;;;;;;;5.25;4.299999;;;;;;;-0.75;74.38281;95752.76;;;;
2021/04/16 00:19:45;;;;;;;5.25;4.299999;;;;;;;-0.75;74.38281;95752.76;;;;
2021/04/16 00:20:45;;;;;;;5.25;4.299999;;;;;;;-0.75;74.38281;95752.76;;;;
2021/04/16 00:21:46;;;;;;;5.25;4.299999;;;;;;;-0.75;74.38281;95752.76;;;;
2021/04/16 00:22:46;;;;;;;5.25;4.299999;;;;;;;-0.75;74.38281;95752.76;;;;
2021/04/16 00:23:47;;;;;;;6.450001;4.8;;;;;;;-0.95;74.72363;95741.96;;;;
2021/04/16 00:24:47;;;;;;;6.450001;4.8;;;;;;;-0.95;74.72363;95741.96;;;;
2021/04/16 00:25:48;;;;;;;6.450001;4.8;;;;;;;-0.95;74.72363;95741.96;;;;
2021/04/16 00:26:50;;;;;;;6.450001;4.8;;;;;;;-0.95;74.72363;95741.96;;;;
2021/04/16 00:27:50;;;;;;;6.450001;4.8;;;;;;;-0.95;74.72363;95741.96;;;;
2021/04/16 00:28:52;;;;;;;6.450001;4.8;;;;;;;-0.95;74.72363;95741.96;;;;
2021/04/16 00:29:52;;;;;;;6.450001;4.8;;;;;;;-0.95;74.72363;95741.96;;;;
2021/04/16 00:30:53;;;;;;;6.450001;4.8;;;;;;;-0.95;74.72363;95741.96;;;;
2021/04/16 00:31:57;;;;;;;6.450001;4.8;;;;;;;-0.95;74.72363;95741.96;;;;
2021/04/16 00:32:57;;;;;;;6.450001;4.8;;;;;;;-0.95;74.72363;95741.96;;;;
2021/04/16 00:34:00;;;;;;;6.450001;4.8;;;;;;;-0.95;74.72363;95741.96;;;;
2021/04/16 00:35:00;;;;;;;5.850001;4.4;;;;;;;-1.2;75.09473;95735.28;;;;
2021/04/16 00:36:01;;;;;;;5.850001;4.4;;;;;;;-1.2;75.09473;95735.28;;;;
2021/04/16 00:37:02;;;;;;;5.850001;4.4;;;;;;;-1.2;75.09473;95735.28;;;;
2021/04/16 00:38:02;;;;;;;5.850001;4.4;;;;;;;-1.2;75.09473;95735.28;;;;
2021/04/16 00:39:04;;;;;;;5.850001;4.4;;;;;;;-1.2;75.09473;95735.28;;;;
2021/04/16 00:40:05;;;;;;;5.850001;4.4;;;;;;;-1.2;75.09473;95735.28;;;;
2021/04/16 00:41:09;;;;;;;5.850001;4.4;;;;;;;-1.2;75.09473;95735.28;;;;
2021/04/16 00:42:14;;;;;;;5.850001;4.4;;;;;;;-1.2;75.09473;95735.28;;;;
2021/04/16 00:43:15;;;;;;;5.850001;4.4;;;;;;;-1.2;75.09473;95735.28;;;;
2021/04/16 00:44:19;;;;;;;5.850001;4.4;;;;;;;-1.2;75.09473;95735.28;;;;
2021/04/16 00:45:19;;;;;;;5.799999;4.35;;;;;;;-1.4;75.63379;95728.01;;;;
2021/04/16 00:46:22;;;;;;;5.799999;4.35;;;;;;;-1.4;75.63379;95728.01;;;;
2021/04/16 00:47:27;;;;;;;5.799999;4.35;;;;;;;-1.4;75.63379;95728.01;;;;
2021/04/16 00:48:27;;;;;;;5.799999;4.35;;;;;;;-1.4;75.63379;95728.01;;;;
2021/04/16 00:49:32;;;;;;;5.799999;4.35;;;;;;;-1.4;75.63379;95728.01;;;;
2021/04/16 00:50:37;;;;;;;5.799999;4.35;;;;;;;-1.4;75.63379;95728.01;;;;
2021/04/16 00:51:44;;;;;;;5.799999;4.35;;;;;;;-1.4;75.63379;95728.01;;;;
2021/04/16 00:52:47;;;;;;;5.799999;4.35;;;;;;;-1.4;75.63379;95728.01;;;;
2021/04/16 00:53:49;;;;;;;5.799999;4.35;;;;;;;-1.4;75.63379;95728.01;;;;
2021/04/16 00:54:50;;;;;;;5.799999;4.35;;;;;;;-1.4;75.63379;95728.01;;;;
2021/04/16 00:55:50;;;;;;;6.2;4.099999;;;;;;;-1.56;75.99902;95722.16;;;;
2021/04/16 00:56:51;;;;;;;6.2;4.099999;;;;;;;-1.56;75.99902;95722.16;;;;
2021/04/16 00:57:53;;;;;;;6.2;4.099999;;;;;;;-1.56;75.99902;95722.16;;;;
2021/04/16 00:58:54;;;;;;;6.2;4.099999;;;;;;;-1.56;75.99902;95722.16;;;;
2021/04/16 00:59:55;;;;;;;6.2;4.099999;;;;;;;-1.56;75.99902;95722.16;;;;
2021/04/16 01:18:03;;;;;;;5.35;4.199999;;;;;;;-1.78;76.67676;95711.52;;;;
2021/04/16 01:19:09;;;;;;;5.35;4.199999;;;;;;;-1.78;76.67676;95711.52;;;;
2021/04/16 01:20:18;;;;;;;5.35;4.199999;;;;;;;-1.78;76.67676;95711.52;;;;
2021/04/16 01:21:22;;;;;;;5.35;4.199999;;;;;;;-1.78;76.67676;95711.52;;;;
2021/04/16 01:22:28;;;;;;;5.35;4.199999;;;;;;;-1.78;76.67676;95711.52;;;;
2021/04/16 01:23:35;;;;;;;5.35;4.199999;;;;;;;-1.78;76.67676;95711.52;;;;
2021/04/16 01:24:44;;;;;;;5.35;4.199999;;;;;;;-1.78;76.67676;95711.52;;;;
2021/04/16 01:25:45;;;;;;;5.35;4.199999;;;;;;;-1.78;76.67676;95711.52;;;;
2021/04/16 01:26:46;;;;;;;5.35;4.199999;;;;;;;-1.78;76.67676;95711.52;;;;
2021/04/16 01:27:47;;;;;;;5.35;4.199999;;;;;;;-1.78;76.67676;95711.52;;;;
2021/04/16 01:28:48;;;;;;;7.8;4.550001;;;;;;;-1.81;76.93262;95708.28;;;;
2021/04/16 01:29:49;;;;;;;7.8;4.550001;;;;;;;-1.81;76.93262;95708.28;;;;
2021/04/16 01:30:50;;;;;;;7.8;4.550001;;;;;;;-1.81;76.93262;95708.28;;;;
2021/04/16 01:31:56;;;;;;;7.8;4.550001;;;;;;;-1.81;76.93262;95708.28;;;;
2021/04/16 01:32:57;;;;;;;7.8;4.550001;;;;;;;-1.81;76.93262;95708.28;;;;
2021/04/16 01:33:59;;;;;;;7.8;4.550001;;;;;;;-1.81;76.93262;95708.28;;;;
2021/04/16 01:35:00;;;;;;;7.8;4.550001;;;;;;;-1.81;76.93262;95708.28;;;;
2021/04/16 01:36:01;;;;;;;7.8;4.550001;;;;;;;-1.81;76.93262;95708.28;;;;
2021/04/16 01:37:03;;;;;;;7.8;4.550001;;;;;;;-1.81;76.93262;95708.28;;;;
2021/04/16 01:38:05;;;;;;;7.8;4.550001;;;;;;;-1.81;76.93262;95708.28;;;;
2021/04/16 01:39:06;;;;;;;6.55;4.55;;;;;;;-1.86;77.10742;95701.78;;;;
2021/04/16 01:40:06;;;;;;;6.55;4.55;;;;;;;-1.86;77.10742;95701.78;;;;
2021/04/16 01:41:10;;;;;;;6.55;4.55;;;;;;;-1.86;77.10742;95701.78;;;;
2021/04/16 01:42:13;;;;;;;6.55;4.55;;;;;;;-1.86;77.10742;95701.78;;;;
2021/04/16 01:43:14;;;;;;;6.55;4.55;;;;;;;-1.86;77.10742;95701.78;;;;
2021/04/16 01:44:19;;;;;;;6.55;4.55;;;;;;;-1.86;77.10742;95701.78;;;;
2021/04/16 01:45:23;;;;;;;6.55;4.55;;;;;;;-1.86;77.10742;95701.78;;;;
2021/04/16 01:46:27;;;;;;;6.55;4.55;;;;;;;-1.86;77.10742;95701.78;;;;
2021/04/16 01:47:28;;;;;;;6.55;4.55;;;;;;;-1.86;77.10742;95701.78;;;;
2021/04/16 01:48:29;;;;;;;6.55;4.55;;;;;;;-1.86;77.10742;95701.78;;;;
2021/04/16 01:49:35;;;;;;;5.7;4.550001;;;;;;;-1.97;77.40918;95697.6;;;;
2021/04/16 01:50:38;;;;;;;5.7;4.550001;;;;;;;-1.97;77.40918;95697.6;;;;
2021/04/16 01:51:39;;;;;;;5.7;4.550001;;;;;;;-1.97;77.40918;95697.6;;;;
2021/04/16 01:52:40;;;;;;;5.7;4.550001;;;;;;;-1.97;77.40918;95697.6;;;;
2021/04/16 01:53:40;;;;;;;5.7;4.550001;;;;;;;-1.97;77.40918;95697.6;;;;
2021/04/16 01:54:41;;;;;;;5.7;4.550001;;;;;;;-1.97;77.40918;95697.6;;;;
2021/04/16 01:55:44;;;;;;;5.7;4.550001;;;;;;;-1.97;77.40918;95697.6;;;;
2021/04/16 01:56:50;;;;;;;5.7;4.550001;;;;;;;-1.97;77.40918;95697.6;;;;
2021/04/16 01:57:56;;;;;;;5.7;4.550001;;;;;;;-1.97;77.40918;95697.6;;;;
2021/04/16 01:58:57;;;;;;;5.7;4.550001;;;;;;;-1.97;77.40918;95697.6;;;;
2021/04/16 01:59:57;;;;;;;6.699999;4.400001;;;;;;;-2.07;77.76563;95692.88;;;;
2021/04/16 02:00:59;;;;;;;6.699999;4.400001;;;;;;;-2.07;77.76563;95692.88;;;;
2021/04/16 02:02:00;;;;;;;6.699999;4.400001;;;;;;;-2.07;77.76563;95692.88;;;;
2021/04/16 02:03:02;;;;;;;6.699999;4.400001;;;;;;;-2.07;77.76563;95692.88;;;;
2021/04/16 02:04:03;;;;;;;6.699999;4.400001;;;;;;;-2.07;77.76563;95692.88;;;;
2021/04/16 02:05:04;;;;;;;6.699999;4.400001;;;;;;;-2.07;77.76563;95692.88;;;;
2021/04/16 02:06:06;;;;;;;6.699999;4.400001;;;;;;;-2.07;77.76563;95692.88;;;;
2021/04/16 02:07:07;;;;;;;6.699999;4.400001;;;;;;;-2.07;77.76563;95692.88;;;;
2021/04/16 02:08:08;;;;;;;6.699999;4.400001;;;;;;;-2.07;77.76563;95692.88;;;;
2021/04/16 02:09:09;;;;;;;6.699999;4.400001;;;;;;;-2.07;77.76563;95692.88;;;;
2021/04/16 02:10:13;;;;;;;6.699999;4.400001;;;;;;;-2.07;77.76563;95692.88;;;;
2021/04/16 02:11:15;;;;;;;8.200001;4.8;;;;;;;-2.09;78.04199;95689.06;;;;
2021/04/16 02:12:15;;;;;;;8.200001;4.8;;;;;;;-2.09;78.04199;95689.06;;;;
2021/04/16 02:13:19;;;;;;;8.200001;4.8;;;;;;;-2.09;78.04199;95689.06;;;;
2021/04/16 02:14:20;;;;;;;8.200001;4.8;;;;;;;-2.09;78.04199;95689.06;;;;
2021/04/16 02:15:23;;;;;;;8.200001;4.8;;;;;;;-2.09;78.04199;95689.06;;;;
2021/04/16 02:16:24;;;;;;;8.200001;4.8;;;;;;;-2.09;78.04199;95689.06;;;;
2021/04/16 02:17:25;;;;;;;8.200001;4.8;;;;;;;-2.09;78.04199;95689.06;;;;
2021/04/16 02:18:28;;;;;;;8.200001;4.8;;;;;;;-2.09;78.04199;95689.06;;;;
2021/04/16 02:19:28;;;;;;;8.200001;4.8;;;;;;;-2.09;78.04199;95689.06;;;;
2021/04/16 02:20:29;;;;;;;8.200001;4.8;;;;;;;-2.09;78.04199;95689.06;;;;
2021/04/16 02:21:30;;;;;;;7.4;4.9;;;;;;;-2.1;78.25879;95687.9;;;;
2021/04/16 02:22:31;;;;;;;7.4;4.9;;;;;;;-2.1;78.25879;95687.9;;;;
2021/04/16 02:23:31;;;;;;;7.4;4.9;;;;;;;-2.1;78.25879;95687.9;;;;
2021/04/16 02:24:32;;;;;;;7.4;4.9;;;;;;;-2.1;78.25879;95687.9;;;;
2021/04/16 02:25:33;;;;;;;7.4;4.9;;;;;;;-2.1;78.25879;95687.9;;;;
2021/04/16 02:26:33;;;;;;;7.4;4.9;;;;;;;-2.1;78.25879;95687.9;;;;
2021/04/16 02:27:35;;;;;;;7.4;4.9;;;;;;;-2.1;78.25879;95687.9;;;;
2021/04/16 02:28:35;;;;;;;7.4;4.9;;;;;;;-2.1;78.25879;95687.9;;;;
2021/04/16 02:29:36;;;;;;;7.4;4.9;;;;;;;-2.1;78.25879;95687.9;;;;
2021/04/16 02:30:36;;;;;;;7.4;4.9;;;;;;;-2.1;78.25879;95687.9;;;;
2021/04/16 02:31:42;;;;;;;7.4;4.9;;;;;;;-2.1;78.25879;95687.9;;;;
2021/04/16 02:32:43;;;;;;;7.099999;5.349999;;;;;;;-2.02;78.41895;95688.81;;;;
2021/04/16 02:33:44;;;;;;;7.099999;5.349999;;;;;;;-2.02;78.41895;95688.81;;;;
2021/04/16 02:34:44;;;;;;;7.099999;5.349999;;;;;;;-2.02;78.41895;95688.81;;;;
2021/04/16 02:35:45;;;;;;;7.099999;5.349999;;;;;;;-2.02;78.41895;95688.81;;;;
2021/04/16 02:36:46;;;;;;;7.099999;5.349999;;;;;;;-2.02;78.41895;95688.81;;;;
2021/04/16 02:37:48;;;;;;;7.099999;5.349999;;;;;;;-2.02;78.41895;95688.81;;;;
2021/04/16 02:38:49;;;;;;;7.099999;5.349999;;;;;;;-2.02;78.41895;95688.81;;;;
2021/04/16 02:39:50;;;;;;;7.099999;5.349999;;;;;;;-2.02;78.41895;95688.81;;;;
2021/04/16 02:40:51;;;;;;;7.099999;5.349999;;;;;;;-2.02;78.41895;95688.81;;;;
2021/04/16 02:41:51;;;;;;;7.099999;5.349999;;;;;;;-2.02;78.41895;95688.81;;;;
2021/04/16 02:42:53;;;;;;;6.7;5.200001;;;;;;;-1.93;78.36035;95677.81;;;;
2021/04/16 02:43:54;;;;;;;6.7;5.200001;;;;;;;-1.93;78.36035;95677.81;;;;
2021/04/16 02:44:54;;;;;;;6.7;5.200001;;;;;;;-1.93;78.36035;95677.81;;;;
2021/04/16 02:45:55;;;;;;;6.7;5.200001;;;;;;;-1.93;78.36035;95677.81;;;;
2021/04/16 02:46:56;;;;;;;6.7;5.200001;;;;;;;-1.93;78.36035;95677.81;;;;
2021/04/16 02:47:57;;;;;;;6.7;5.200001;;;;;;;-1.93;78.36035;95677.81;;;;
2021/04/16 02:48:58;;;;;;;6.7;5.200001;;;;;;;-1.93;78.36035;95677.81;;;;
2021/04/16 02:49:58;;;;;;;6.7;5.200001;;;;;;;-1.93;78.36035;95677.81;;;;
2021/04/16 02:50:59;;;;;;;6.7;5.200001;;;;;;;-1.93;78.36035;95677.81;;;;
2021/04/16 02:52:00;;;;;;;6.7;5.200001;;;;;;;-1.93;78.36035;95677.81;;;;
2021/04/16 02:53:01;;;;;;;6.7;5.200001;;;;;;;-1.93;78.36035;95677.81;;;;
2021/04/16 02:54:02;;;;;;;8.45;5.45;;;;;;;-1.98;78.53906;95676.53;;;;
2021/04/16 02:55:04;;;;;;;8.45;5.45;;;;;;;-1.98;78.53906;95676.53;;;;
2021/04/16 02:56:06;;;;;;;8.45;5.45;;;;;;;-1.98;78.53906;95676.53;;;;
2021/04/16 02:57:07;;;;;;;8.45;5.45;;;;;;;-1.98;78.53906;95676.53;;;;
2021/04/16 02:58:08;;;;;;;8.45;5.45;;;;;;;-1.98;78.53906;95676.53;;;;
2021/04/16 02:59:09;;;;;;;8.45;5.45;;;;;;;-1.98;78.53906;95676.53;;;;
2021/04/16 03:00:10;;;;;;;8.45;5.45;;;;;;;-1.98;78.53906;95676.53;;;;
2021/04/16 03:01:13;;;;;;;8.45;5.45;;;;;;;-1.98;78.53906;95676.53;;;;
2021/04/16 03:02:14;;;;;;;8.45;5.45;;;;;;;-1.98;78.53906;95676.53;;;;
2021/04/16 03:03:14;;;;;;;8.45;5.45;;;;;;;-1.98;78.53906;95676.53;;;;
2021/04/16 03:04:15;;;;;;;7.85;5.700001;;;;;;;-2.17;78.82715;95675.26;;;;
2021/04/16 03:05:15;;;;;;;7.85;5.700001;;;;;;;-2.17;78.82715;95675.26;;;;
2021/04/16 03:06:17;;;;;;;7.85;5.700001;;;;;;;-2.17;78.82715;95675.26;;;;
2021/04/16 03:07:19;;;;;;;7.85;5.700001;;;;;;;-2.17;78.82715;95675.26;;;;
2021/04/16 03:08:20;;;;;;;7.85;5.700001;;;;;;;-2.17;78.82715;95675.26;;;;
2021/04/16 03:09:21;;;;;;;7.85;5.700001;;;;;;;-2.17;78.82715;95675.26;;;;
2021/04/16 03:10:21;;;;;;;7.85;5.700001;;;;;;;-2.17;78.82715;95675.26;;;;
2021/04/16 03:11:26;;;;;;;7.85;5.700001;;;;;;;-2.17;78.82715;95675.26;;;;
2021/04/16 03:12:28;;;;;;;7.85;5.700001;;;;;;;-2.17;78.82715;95675.26;;;;
2021/04/16 03:13:28;;;;;;;7.85;5.700001;;;;;;;-2.17;78.82715;95675.26;;;;
2021/04/16 03:14:29;;;;;;;7.85;5.700001;;;;;;;-2.17;78.82715;95675.26;;;;
2021/04/16 03:15:31;;;;;;;8.8;4.950001;;;;;;;-2.32;79.32617;95666.67;;;;
2021/04/16 03:16:31;;;;;;;8.8;4.950001;;;;;;;-2.32;79.32617;95666.67;;;;
2021/04/16 03:17:33;;;;;;;8.8;4.950001;;;;;;;-2.32;79.32617;95666.67;;;;
2021/04/16 03:18:34;;;;;;;8.8;4.950001;;;;;;;-2.32;79.32617;95666.67;;;;
2021/04/16 03:19:34;;;;;;;8.8;4.950001;;;;;;;-2.32;79.32617;95666.67;;;;
2021/04/16 03:20:35;;;;;;;8.8;4.950001;;;;;;;-2.32;79.32617;95666.67;;;;
2021/04/16 03:21:36;;;;;;;8.8;4.950001;;;;;;;-2.32;79.32617;95666.67;;;;
2021/04/16 03:22:37;;;;;;;8.8;4.950001;;;;;;;-2.32;79.32617;95666.67;;;;
2021/04/16 03:23:37;;;;;;;8.8;4.950001;;;;;;;-2.32;79.32617;95666.67;;;;
2021/04/16 03:24:38;;;;;;;8.8;4.950001;;;;;;;-2.32;79.32617;95666.67;;;;
2021/04/16 03:25:38;;;;;;;5.799999;4.1;;;;;;;-2.42;79.85742;95662.81;;;;
2021/04/16 03:26:39;;;;;;;5.799999;4.1;;;;;;;-2.42;79.85742;95662.81;;;;
2021/04/16 03:27:39;;;;;;;5.799999;4.1;;;;;;;-2.42;79.85742;95662.81;;;;
2021/04/16 03:28:41;;;;;;;5.799999;4.1;;;;;;;-2.42;79.85742;95662.81;;;;
2021/04/16 03:29:42;;;;;;;5.799999;4.1;;;;;;;-2.42;79.85742;95662.81;;;;
2021/04/16 03:30:42;;;;;;;5.799999;4.1;;;;;;;-2.42;79.85742;95662.81;;;;
2021/04/16 03:31:45;;;;;;;5.799999;4.1;;;;;;;-2.42;79.85742;95662.81;;;;
2021/04/16 03:32:46;;;;;;;5.799999;4.1;;;;;;;-2.42;79.85742;95662.81;;;;
2021/04/16 03:33:46;;;;;;;5.799999;4.1;;;;;;;-2.42;79.85742;95662.81;;;;
2021/04/16 03:34:47;;;;;;;5.799999;4.1;;;;;;;-2.42;79.85742;95662.81;;;;
2021/04/16 03:35:48;;;;;;;5.799999;4.1;;;;;;;-2.42;79.85742;95662.81;;;;
2021/04/16 03:36:48;;;;;;;6.050001;3.95;;;;;;;-2.54;79.9502;95667.91;;;;
2021/04/16 03:37:49;;;;;;;6.050001;3.95;;;;;;;-2.54;79.9502;95667.91;;;;
2021/04/16 03:38:50;;;;;;;6.050001;3.95;;;;;;;-2.54;79.9502;95667.91;;;;
2021/04/16 03:39:51;;;;;;;6.050001;3.95;;;;;;;-2.54;79.9502;95667.91;;;;
2021/04/16 03:40:52;;;;;;;6.050001;3.95;;;;;;;-2.54;79.9502;95667.91;;;;
2021/04/16 03:41:52;;;;;;;6.050001;3.95;;;;;;;-2.54;79.9502;95667.91;;;;
2021/04/16 03:42:53;;;;;;;6.050001;3.95;;;;;;;-2.54;79.9502;95667.91;;;;
2021/04/16 03:43:53;;;;;;;6.050001;3.95;;;;;;;-2.54;79.9502;95667.91;;;;
2021/04/16 03:44:54;;;;;;;6.050001;3.95;;;;;;;-2.54;79.9502;95667.91;;;;
2021/04/16 03:45:54;;;;;;;6.050001;3.95;;;;;;;-2.54;79.9502;95667.91;;;;
2021/04/16 03:46:55;;;;;;;7.1;3.85;;;;;;;-2.62;80.1416;95659.45;;;;
2021/04/16 03:47:55;;;;;;;7.1;3.85;;;;;;;-2.62;80.1416;95659.45;;;;
2021/04/16 03:48:56;;;;;;;7.1;3.85;;;;;;;-2.62;80.1416;95659.45;;;;
2021/04/16 03:49:57;;;;;;;7.1;3.85;;;;;;;-2.62;80.1416;95659.45;;;;
2021/04/16 03:50:57;;;;;;;7.1;3.85;;;;;;;-2.62;80.1416;95659.45;;;;
2021/04/16 03:51:58;;;;;;;7.1;3.85;;;;;;;-2.62;80.1416;95659.45;;;;
2021/04/16 03:53:01;;;;;;;7.1;3.85;;;;;;;-2.62;80.1416;95659.45;;;;
2021/04/16 03:54:03;;;;;;;7.1;3.85;;;;;;;-2.62;80.1416;95659.45;;;;
2021/04/16 03:55:04;;;;;;;7.1;3.85;;;;;;;-2.62;80.1416;95659.45;;;;
2021/04/16 03:56:07;;;;;;;7.1;3.85;;;;;;;-2.62;80.1416;95659.45;;;;
2021/04/16 03:57:09;;;;;;;7.1;3.85;;;;;;;-2.62;80.1416;95659.45;;;;
2021/04/16 03:58:11;;;;;;;9.1;4.450001;;;;;;;-2.66;80.3623;95666.83;;;;
2021/04/16 03:59:12;;;;;;;9.1;4.450001;;;;;;;-2.66;80.3623;95666.83;;;;
2021/04/16 04:00:13;;;;;;;9.1;4.450001;;;;;;;-2.66;80.3623;95666.83;;;;
2021/04/16 04:01:20;;;;;;;9.1;4.450001;;;;;;;-2.66;80.3623;95666.83;;;;
2021/04/16 04:02:20;;;;;;;9.1;4.450001;;;;;;;-2.66;80.3623;95666.83;;;;
2021/04/16 04:03:21;;;;;;;9.1;4.450001;;;;;;;-2.66;80.3623;95666.83;;;;
2021/04/16 04:04:22;;;;;;;9.1;4.450001;;;;;;;-2.66;80.3623;95666.83;;;;
2021/04/16 04:05:23;;;;;;;9.1;4.450001;;;;;;;-2.66;80.3623;95666.83;;;;
2021/04/16 04:06:25;;;;;;;9.1;4.450001;;;;;;;-2.66;80.3623;95666.83;;;;
2021/04/16 04:07:25;;;;;;;9.1;4.450001;;;;;;;-2.66;80.3623;95666.83;;;;
2021/04/16 04:08:26;;;;;;;5.849999;3.85;;;;;;;-2.76;80.36328;95671.34;;;;
2021/04/16 04:09:26;;;;;;;5.849999;3.85;;;;;;;-2.76;80.36328;95671.34;;;;
2021/04/16 04:10:34;;;;;;;5.849999;3.85;;;;;;;-2.76;80.36328;95671.34;;;;
2021/04/16 04:11:34;;;;;;;5.849999;3.85;;;;;;;-2.76;80.36328;95671.34;;;;
2021/04/16 04:12:35;;;;;;;5.849999;3.85;;;;;;;-2.76;80.36328;95671.34;;;;
2021/04/16 04:13:35;;;;;;;5.849999;3.85;;;;;;;-2.76;80.36328;95671.34;;;;
2021/04/16 04:14:36;;;;;;;5.849999;3.85;;;;;;;-2.76;80.36328;95671.34;;;;
2021/04/16 04:15:36;;;;;;;5.849999;3.85;;;;;;;-2.76;80.36328;95671.34;;;;
2021/04/16 04:16:38;;;;;;;5.849999;3.85;;;;;;;-2.76;80.36328;95671.34;;;;
2021/04/16 04:17:52;;;;;;;5.849999;3.85;;;;;;;-2.76;80.36328;95671.34;;;;
2021/04/16 04:18:53;;;;;;;5.749999;4.4;;;;;;;-2.87;80.56055;95676.81;;;;
2021/04/16 04:19:54;;;;;;;5.749999;4.4;;;;;;;-2.87;80.56055;95676.81;;;;
2021/04/16 04:20:54;;;;;;;5.749999;4.4;;;;;;;-2.87;80.56055;95676.81;;;;
2021/04/16 04:21:55;;;;;;;5.749999;4.4;;;;;;;-2.87;80.56055;95676.81;;;;
2021/04/16 04:22:57;;;;;;;5.749999;4.4;;;;;;;-2.87;80.56055;95676.81;;;;
2021/04/16 04:23:59;;;;;;;5.749999;4.4;;;;;;;-2.87;80.56055;95676.81;;;;
2021/04/16 04:24:59;;;;;;;5.749999;4.4;;;;;;;-2.87;80.56055;95676.81;;;;
2021/04/16 04:26:00;;;;;;;5.749999;4.4;;;;;;;-2.87;80.56055;95676.81;;;;
2021/04/16 04:27:01;;;;;;;5.749999;4.4;;;;;;;-2.87;80.56055;95676.81;;;;
2021/04/16 04:28:02;;;;;;;5.749999;4.4;;;;;;;-2.87;80.56055;95676.81;;;;
2021/04/16 04:29:05;;;;;;;5.749999;4.4;;;;;;;-2.87;80.56055;95676.81;;;;
2021/04/16 04:30:06;;;;;;;7;4.600001;;;;;;;-2.94;80.80469;95676.2;;;;
2021/04/16 04:31:08;;;;;;;7;4.600001;;;;;;;-2.94;80.80469;95676.2;;;;
2021/04/16 04:32:08;;;;;;;7;4.600001;;;;;;;-2.94;80.80469;95676.2;;;;
2021/04/16 04:33:09;;;;;;;7;4.600001;;;;;;;-2.94;80.80469;95676.2;;;;
2021/04/16 04:34:09;;;;;;;7;4.600001;;;;;;;-2.94;80.80469;95676.2;;;;
2021/04/16 04:35:10;;;;;;;7;4.600001;;;;;;;-2.94;80.80469;95676.2;;;;
2021/04/16 04:36:12;;;;;;;7;4.600001;;;;;;;-2.94;80.80469;95676.2;;;;
2021/04/16 04:37:13;;;;;;;7;4.600001;;;;;;;-2.94;80.80469;95676.2;;;;
2021/04/16 04:38:13;;;;;;;7;4.600001;;;;;;;-2.94;80.80469;95676.2;;;;
2021/04/16 04:39:14;;;;;;;7;4.600001;;;;;;;-2.94;80.80469;95676.2;;;;
2021/04/16 04:40:16;;;;;;;6.7;4.299999;;;;;;;-2.95;80.9873;95678.09;;;;
2021/04/16 04:41:18;;;;;;;6.7;4.299999;;;;;;;-2.95;80.9873;95678.09;;;;
2021/04/16 04:42:19;;;;;;;6.7;4.299999;;;;;;;-2.95;80.9873;95678.09;;;;
2021/04/16 04:43:20;;;;;;;6.7;4.299999;;;;;;;-2.95;80.9873;95678.09;;;;
2021/04/16 04:44:20;;;;;;;6.7;4.299999;;;;;;;-2.95;80.9873;95678.09;;;;
2021/04/16 04:45:21;;;;;;;6.7;4.299999;;;;;;;-2.95;80.9873;95678.09;;;;
2021/04/16 04:46:23;;;;;;;6.7;4.299999;;;;;;;-2.95;80.9873;95678.09;;;;
2021/04/16 04:47:24;;;;;;;6.7;4.299999;;;;;;;-2.95;80.9873;95678.09;;;;
2021/04/16 04:48:24;;;;;;;6.7;4.299999;;;;;;;-2.95;80.9873;95678.09;;;;
2021/04/16 04:49:25;;;;;;;6.7;4.299999;;;;;;;-2.95;80.9873;95678.09;;;;
2021/04/16 04:50:26;;;;;;;6.7;4.299999;;;;;;;-2.95;80.9873;95678.09;;;;
2021/04/16 04:51:27;;;;;;;7.950001;5.05;;;;;;;-2.93;81.13672;95681.43;;;;
2021/04/16 04:52:28;;;;;;;7.950001;5.05;;;;;;;-2.93;81.13672;95681.43;;;;
2021/04/16 04:53:31;;;;;;;7.950001;5.05;;;;;;;-2.93;81.13672;95681.43;;;;
2021/04/16 04:54:32;;;;;;;7.950001;5.05;;;;;;;-2.93;81.13672;95681.43;;;;
2021/04/16 04:55:33;;;;;;;7.950001;5.05;;;;;;;-2.93;81.13672;95681.43;;;;
2021/04/16 04:56:33;;;;;;;7.950001;5.05;;;;;;;-2.93;81.13672;95681.43;;;;
2021/04/16 04:57:34;;;;;;;7.950001;5.05;;;;;;;-2.93;81.13672;95681.43;;;;
2021/04/16 04:58:36;;;;;;;7.950001;5.05;;;;;;;-2.93;81.13672;95681.43;;;;
2021/04/16 04:59:36;;;;;;;7.950001;5.05;;;;;;;-2.93;81.13672;95681.43;;;;
2021/04/16 05:00:37;;;;;;;7.950001;5.05;;;;;;;-2.93;81.13672;95681.43;;;;
2021/04/16 05:01:37;;;;;;;8.799999;5.1;;;;;;;-2.81;81.37891;95687.28;;;;
2021/04/16 05:02:38;;;;;;;8.799999;5.1;;;;;;;-2.81;81.37891;95687.28;;;;
2021/04/16 05:03:39;;;;;;;8.799999;5.1;;;;;;;-2.81;81.37891;95687.28;;;;
2021/04/16 05:04:40;;;;;;;8.799999;5.1;;;;;;;-2.81;81.37891;95687.28;;;;
2021/04/16 05:05:40;;;;;;;8.799999;5.1;;;;;;;-2.81;81.37891;95687.28;;;;
2021/04/16 05:06:41;;;;;;;8.799999;5.1;;;;;;;-2.81;81.37891;95687.28;;;;
2021/04/16 05:07:41;;;;;;;8.799999;5.1;;;;;;;-2.81;81.37891;95687.28;;;;
2021/04/16 05:08:42;;;;;;;8.799999;5.1;;;;;;;-2.81;81.37891;95687.28;;;;
2021/04/16 05:09:42;;;;;;;8.799999;5.1;;;;;;;-2.81;81.37891;95687.28;;;;
2021/04/16 05:10:43;;;;;;;8.799999;5.1;;;;;;;-2.81;81.37891;95687.28;;;;
2021/04/16 05:11:44;;;;;;;8.799999;5.1;;;;;;;-2.81;81.37891;95687.28;;;;
2021/04/16 05:12:46;;;;;;;9.249999;5.299999;;;;;;;-2.64;81.5127;95690.47;;;;
2021/04/16 05:13:47;;;;;;;9.249999;5.299999;;;;;;;-2.64;81.5127;95690.47;;;;
2021/04/16 05:14:51;;;;;;;9.249999;5.299999;;;;;;;-2.64;81.5127;95690.47;;;;
2021/04/16 05:15:52;;;;;;;9.249999;5.299999;;;;;;;-2.64;81.5127;95690.47;;;;
2021/04/16 05:16:52;;;;;;;9.249999;5.299999;;;;;;;-2.64;81.5127;95690.47;;;;
2021/04/16 05:17:53;;;;;;;9.249999;5.299999;;;;;;;-2.64;81.5127;95690.47;;;;
2021/04/16 05:18:54;;;;;;;9.249999;5.299999;;;;;;;-2.64;81.5127;95690.47;;;;
2021/04/16 05:19:55;;;;;;;9.249999;5.299999;;;;;;;-2.64;81.5127;95690.47;;;;
2021/04/16 05:20:55;;;;;;;9.249999;5.299999;;;;;;;-2.64;81.5127;95690.47;;;;
2021/04/16 05:21:57;;;;;;;9.249999;5.299999;;;;;;;-2.64;81.5127;95690.47;;;;
2021/04/16 05:22:59;;;;;;;8.65;5.25;;;;;;;-2.39;81.64453;95688.46;;;;
2021/04/16 05:23:59;;;;;;;8.65;5.25;;;;;;;-2.39;81.64453;95688.46;;;;
2021/04/16 05:24:59;;;;;;;8.65;5.25;;;;;;;-2.39;81.64453;95688.46;;;;
2021/04/16 05:26:00;;;;;;;8.65;5.25;;;;;;;-2.39;81.64453;95688.46;;;;
2021/04/16 05:27:01;;;;;;;8.65;5.25;;;;;;;-2.39;81.64453;95688.46;;;;
2021/04/16 05:28:04;;;;;;;8.65;5.25;;;;;;;-2.39;81.64453;95688.46;;;;
2021/04/16 05:29:06;;;;;;;8.65;5.25;;;;;;;-2.39;81.64453;95688.46;;;;
2021/04/16 05:30:07;;;;;;;8.65;5.25;;;;;;;-2.39;81.64453;95688.46;;;;
2021/04/16 05:31:10;;;;;;;8.65;5.25;;;;;;;-2.39;81.64453;95688.46;;;;
2021/04/16 05:32:10;;;;;;;8.65;5.25;;;;;;;-2.39;81.64453;95688.46;;;;
2021/04/16 05:33:11;;;;;;;8.65;5.25;;;;;;;-2.39;81.64453;95688.46;;;;
2021/04/16 05:34:12;;;;;;;10.85;5.95;;;;;;;-2.03;81.71582;95698.61;;;;
2021/04/16 05:35:12;;;;;;;10.85;5.95;;;;;;;-2.03;81.71582;95698.61;;;;
2021/04/16 05:36:14;;;;;;;10.85;5.95;;;;;;;-2.03;81.71582;95698.61;;;;
2021/04/16 05:37:15;;;;;;;10.85;5.95;;;;;;;-2.03;81.71582;95698.61;;;;
2021/04/16 05:38:16;;;;;;;10.85;5.95;;;;;;;-2.03;81.71582;95698.61;;;;
2021/04/16 05:39:16;;;;;;;10.85;5.95;;;;;;;-2.03;81.71582;95698.61;;;;
2021/04/16 05:40:17;;;;;;;10.85;5.95;;;;;;;-2.03;81.71582;95698.61;;;;
2021/04/16 05:41:18;;;;;;;10.85;5.95;;;;;;;-2.03;81.71582;95698.61;;;;
2021/04/16 05:42:19;;;;;;;10.85;5.95;;;;;;;-2.03;81.71582;95698.61;;;;
2021/04/16 05:43:20;;;;;;;10.85;5.95;;;;;;;-2.03;81.71582;95698.61;;;;
2021/04/16 05:44:21;;;;;;;9.499999;5.85;;;;;;;-1.57;81.61621;95705.03;;;;
2021/04/16 05:45:22;;;;;;;9.499999;5.85;;;;;;;-1.57;81.61621;95705.03;;;;
2021/04/16 05:46:23;;;;;;;9.499999;5.85;;;;;;;-1.57;81.61621;95705.03;;;;
2021/04/16 05:47:23;;;;;;;9.499999;5.85;;;;;;;-1.57;81.61621;95705.03;;;;
2021/04/16 05:48:24;;;;;;;9.499999;5.85;;;;;;;-1.57;81.61621;95705.03;;;;
2021/04/16 05:49:25;;;;;;;9.499999;5.85;;;;;;;-1.57;81.61621;95705.03;;;;
2021/04/16 05:50:25;;;;;;;9.499999;5.85;;;;;;;-1.57;81.61621;95705.03;;;;
2021/04/16 05:51:26;;;;;;;9.499999;5.85;;;;;;;-1.57;81.61621;95705.03;;;;
2021/04/16 05:52:27;;;;;;;9.499999;5.85;;;;;;;-1.57;81.61621;95705.03;;;;